Time;durP1;ratioP1;P1;durP2;ratioP2;P2;SDS_P1;SDS_P2;PMS_P1;PMS_P2;Temp;Humidity;BMP_temperature;BMP_pressure;BME280_temperature;BME280_humidity;BME280_pressure;Samples;Min_cycle;Max_cycle;Signal;HPM_P1;HPM_P2
2023/05/23 00:00:13;;;;;;;5.57;3.50;;;;;;;14.55;100.00;94754.28;5037938;28;20482;-81
2023/05/23 00:02:40;;;;;;;6.40;3.30;;;;;;;14.49;100.00;94753.13;5073526;28;20529;-81
2023/05/23 00:05:09;;;;;;;5.03;3.37;;;;;;;14.48;100.00;94746.19;5037948;28;20900;-81
2023/05/23 00:07:35;;;;;;;5.70;3.30;;;;;;;14.47;100.00;94749.81;5073312;28;21014;-82
2023/05/23 00:10:03;;;;;;;4.03;3.37;;;;;;;14.49;100.00;94744.38;5073001;28;21105;-81
2023/05/23 00:12:29;;;;;;;4.17;3.27;;;;;;;14.47;100.00;94743.69;5073425;28;20476;-81
2023/05/23 00:14:56;;;;;;;3.67;3.37;;;;;;;14.47;100.00;94738.41;5072869;28;20482;-81
2023/05/23 00:17:24;;;;;;;5.33;4.93;;;;;;;14.42;100.00;94745.91;5072988;28;20498;-81
2023/05/23 00:19:51;;;;;;;11.33;3.60;;;;;;;14.37;100.00;94738.47;5037969;28;20452;-81
2023/05/23 00:22:19;;;;;;;3.70;3.40;;;;;;;14.34;100.00;94743.25;5072779;28;20484;-81
2023/05/23 00:24:46;;;;;;;6.57;3.53;;;;;;;14.33;100.00;94741.59;5073157;28;20453;-81
2023/05/23 00:27:13;;;;;;;3.90;3.50;;;;;;;14.35;100.00;94739.63;5073083;28;20996;-80
2023/05/23 00:29:40;;;;;;;6.67;3.57;;;;;;;14.31;99.87;94735.66;5072748;28;20949;-81
2023/05/23 00:32:07;;;;;;;5.03;3.90;;;;;;;14.29;100.00;94724.41;5037261;28;20495;-81
2023/05/23 00:34:35;;;;;;;3.70;3.20;;;;;;;14.29;100.00;94725.25;5072648;28;20451;-81
2023/05/23 00:37:02;;;;;;;4.80;2.90;;;;;;;14.26;100.00;94731.66;5072890;28;20476;-81
2023/05/23 00:39:30;;;;;;;3.33;3.03;;;;;;;14.26;100.00;94733.47;5072978;28;20444;-81
2023/05/23 00:41:57;;;;;;;3.50;3.20;;;;;;;14.26;100.00;94720.28;5072640;28;20487;-81
2023/05/23 00:44:24;;;;;;;3.33;3.13;;;;;;;14.29;100.00;94719.13;5072939;28;20501;-81
2023/05/23 00:46:53;;;;;;;3.10;2.83;;;;;;;14.30;100.00;94726.06;5072461;28;20505;-81
2023/05/23 00:49:20;;;;;;;5.03;2.30;;;;;;;14.29;100.00;94727.88;5072579;28;20498;-81
2023/05/23 00:51:48;;;;;;;3.27;2.87;;;;;;;14.25;99.93;94724.72;5072358;28;20504;-81
2023/05/23 00:54:18;;;;;;;3.07;2.70;;;;;;;14.24;99.88;94722.25;5072423;28;20526;-81
2023/05/23 00:56:47;;;;;;;3.80;3.50;;;;;;;14.20;100.00;94727.00;5072429;28;20448;-81
2023/05/23 00:59:15;;;;;;;3.53;3.23;;;;;;;14.21;100.00;94730.47;5072442;28;20437;-81
2023/05/23 01:01:45;;;;;;;3.63;2.93;;;;;;;14.18;100.00;94729.00;5072175;28;20484;-81
2023/05/23 01:04:13;;;;;;;3.30;3.10;;;;;;;14.17;100.00;94722.06;5071986;28;20523;-81
2023/05/23 01:06:40;;;;;;;3.77;3.37;;;;;;;14.17;99.71;94731.78;5071874;28;20515;-81
2023/05/23 01:09:08;;;;;;;5.20;3.50;;;;;;;14.16;99.85;94736.19;5072158;28;21219;-81
2023/05/23 01:11:42;;;;;;;5.53;3.23;;;;;;;14.17;99.50;94732.63;5072305;28;20459;-81
2023/05/23 01:14:13;;;;;;;5.40;2.80;;;;;;;14.16;99.91;94735.38;5071905;28;20447;-81
2023/05/23 01:16:47;;;;;;;5.23;3.30;;;;;;;14.15;99.14;94734.53;5053506;28;20852;-81
2023/05/23 01:19:46;;;;;;;4.40;4.10;;;;;;;14.09;99.54;94729.06;5072157;28;20449;-81
2023/05/23 01:22:21;;;;;;;3.20;2.90;;;;;;;14.11;99.73;94727.94;4989992;28;21047;-81
2023/05/23 01:24:55;;;;;;;3.30;3.00;;;;;;;14.11;99.98;94735.03;4990062;28;20496;-81
2023/05/23 01:27:38;;;;;;;5.33;3.50;;;;;;;14.08;99.40;94732.69;4990344;28;20451;-81
2023/05/23 01:30:09;;;;;;;3.30;3.00;;;;;;;14.02;99.07;94736.78;4990098;28;20865;-81
2023/05/23 01:32:38;;;;;;;4.13;3.43;;;;;;;14.00;99.28;94741.38;4990277;28;20453;-81
2023/05/23 01:35:06;;;;;;;3.10;2.90;;;;;;;14.00;99.53;94738.75;4990097;28;20489;-81
2023/05/23 01:37:33;;;;;;;3.43;3.10;;;;;;;14.03;99.67;94734.97;4989857;28;20520;-82
2023/05/23 01:39:59;;;;;;;3.30;3.00;;;;;;;14.03;99.81;94729.69;4990178;28;20518;-81
2023/05/23 01:42:27;;;;;;;4.00;3.67;;;;;;;14.04;99.79;94734.81;4990144;28;20902;-81
2023/05/23 01:44:58;;;;;;;5.27;3.50;;;;;;;14.05;99.00;94733.84;4990178;28;20536;-81
2023/05/23 01:47:25;;;;;;;3.43;3.13;;;;;;;14.03;99.35;94730.53;4989969;28;20498;-81
2023/05/23 01:49:54;;;;;;;4.10;3.00;;;;;;;14.03;99.38;94724.41;4990103;28;20519;-81
2023/05/23 01:52:22;;;;;;;3.43;3.13;;;;;;;14.04;99.39;94716.34;4989811;28;20455;-81
2023/05/23 01:54:49;;;;;;;3.40;3.10;;;;;;;14.08;99.37;94720.31;4989949;28;20451;-81
2023/05/23 01:57:17;;;;;;;3.80;3.40;;;;;;;14.12;99.52;94731.41;4990023;28;20512;-81
2023/05/23 01:59:44;;;;;;;3.60;3.30;;;;;;;14.16;98.59;94730.94;5048371;28;20447;-81
2023/05/23 02:02:12;;;;;;;4.43;3.07;;;;;;;14.13;98.46;94730.41;5071572;28;20484;-81
2023/05/23 02:04:38;;;;;;;3.53;2.83;;;;;;;14.10;98.36;94728.91;5036230;28;20509;-81
2023/05/23 02:07:06;;;;;;;6.33;3.33;;;;;;;13.98;98.04;94727.53;5071496;28;20985;-80
2023/05/23 02:09:32;;;;;;;8.17;4.10;;;;;;;13.77;99.08;94727.03;5036062;28;20480;-81
2023/05/23 02:11:59;;;;;;;3.37;3.17;;;;;;;13.71;99.79;94730.28;5071550;28;20865;-81
2023/05/23 02:14:27;;;;;;;8.73;4.17;;;;;;;13.72;100.00;94739.84;5071531;28;20446;-81
2023/05/23 02:16:54;;;;;;;6.13;3.70;;;;;;;13.60;100.00;94732.19;5071553;28;20443;-81
2023/05/23 02:19:22;;;;;;;5.27;3.63;;;;;;;13.61;100.00;94741.75;5072744;28;20451;-81
2023/05/23 02:21:48;;;;;;;4.10;3.80;;;;;;;13.63;100.00;94734.53;5039592;28;20484;-81
2023/05/23 02:24:15;;;;;;;5.63;3.33;;;;;;;13.67;100.00;94731.59;5075229;28;20502;-81
2023/05/23 02:26:42;;;;;;;3.67;3.07;;;;;;;13.69;100.00;94727.81;5075076;28;20443;-81
2023/05/23 02:29:09;;;;;;;4.20;3.70;;;;;;;13.74;99.77;94743.16;5075146;28;20447;-81
2023/05/23 02:31:36;;;;;;;3.80;3.00;;;;;;;13.74;99.37;94725.53;5075111;28;20499;-81
2023/05/23 02:34:03;;;;;;;3.43;3.10;;;;;;;13.75;98.63;94735.09;5074871;28;20986;-80
2023/05/23 02:36:32;;;;;;;7.60;3.20;;;;;;;13.76;98.13;94728.03;5074524;28;20533;-81
2023/05/23 02:38:59;;;;;;;4.50;3.57;;;;;;;13.78;98.33;94723.41;5075015;28;20500;-81
2023/05/23 02:41:25;;;;;;;3.53;3.23;;;;;;;13.81;98.57;94723.09;5074992;28;20487;-81
2023/05/23 02:43:52;;;;;;;3.17;2.80;;;;;;;13.80;99.11;94713.53;5075115;28;20844;-81
2023/05/23 02:46:19;;;;;;;3.33;3.03;;;;;;;13.76;98.85;94715.66;5074553;28;20444;-81
2023/05/23 02:48:45;;;;;;;3.00;2.80;;;;;;;13.76;99.01;94718.31;5074947;28;20447;-81
2023/05/23 02:51:13;;;;;;;6.40;2.90;;;;;;;13.73;98.07;94723.06;5074748;28;20452;-81
2023/05/23 02:53:41;;;;;;;3.83;3.30;;;;;;;13.67;98.05;94716.59;5074524;28;20885;-81
2023/05/23 02:56:08;;;;;;;3.07;2.80;;;;;;;13.66;98.84;94716.75;5074658;28;20498;-81
2023/05/23 02:58:35;;;;;;;3.40;3.17;;;;;;;13.62;99.32;94706.50;5074489;28;20524;-80
2023/05/23 03:01:02;;;;;;;3.97;3.30;;;;;;;13.63;98.07;94723.16;5074236;28;20448;-81
2023/05/23 03:03:30;;;;;;;8.50;4.70;;;;;;;13.47;98.28;94718.56;5074460;28;20454;-81
2023/05/23 03:05:57;;;;;;;9.20;5.80;;;;;;;13.48;98.44;94716.75;5074288;28;20499;-81
2023/05/23 03:08:24;;;;;;;21.10;7.73;;;;;;;13.41;98.79;94710.44;5039083;28;20438;-81
2023/05/23 03:10:52;;;;;;;15.67;8.90;;;;;;;13.44;100.00;94705.69;5074305;28;20469;-81
2023/05/23 03:13:19;;;;;;;10.50;8.13;;;;;;;13.48;100.00;94708.84;5074159;28;20994;-81
2023/05/23 03:15:46;;;;;;;32.40;8.20;;;;;;;13.47;100.00;94713.28;5074668;28;20446;-81
2023/05/23 03:18:13;;;;;;;19.53;8.37;;;;;;;13.41;100.00;94711.25;5074335;28;20928;-81
2023/05/23 03:20:40;;;;;;;35.30;9.70;;;;;;;13.35;100.00;94711.88;5074103;28;20998;-81
2023/05/23 03:23:06;;;;;;;14.17;9.87;;;;;;;13.32;100.00;94710.38;5074162;28;20489;-81
2023/05/23 03:25:33;;;;;;;39.03;11.90;;;;;;;13.36;100.00;94712.72;5074022;28;20531;-80
2023/05/23 03:28:01;;;;;;;20.90;9.80;;;;;;;13.36;100.00;94710.91;5074069;28;20446;-81
2023/05/23 03:30:28;;;;;;;44.00;11.23;;;;;;;13.29;100.00;94717.72;5054975;28;20780;-81
2023/05/23 03:32:55;;;;;;;34.23;9.77;;;;;;;13.19;100.00;94716.97;5073713;28;20495;-81
2023/05/23 03:35:21;;;;;;;35.30;11.07;;;;;;;13.17;100.00;94716.28;5073960;28;20508;-81
2023/05/23 03:37:48;;;;;;;22.17;10.07;;;;;;;13.10;100.00;94725.75;5074194;28;20478;-81
2023/05/23 03:40:15;;;;;;;33.83;10.80;;;;;;;13.09;100.00;94740.75;5074000;28;20453;-80
2023/05/23 03:42:42;;;;;;;25.70;10.30;;;;;;;13.05;100.00;94738.56;5038332;28;20902;-81
2023/05/23 03:45:10;;;;;;;24.53;12.47;;;;;;;12.98;100.00;94743.56;5073693;28;20778;-81
2023/05/23 03:47:37;;;;;;;12.97;10.07;;;;;;;12.91;100.00;94740.69;5038489;28;20449;-81
2023/05/23 03:50:04;;;;;;;22.10;8.77;;;;;;;12.98;100.00;94739.13;5073532;28;20447;-81
2023/05/23 03:52:31;;;;;;;21.13;9.83;;;;;;;12.99;100.00;94748.69;5073572;28;20438;-81
2023/05/23 03:54:58;;;;;;;11.17;8.80;;;;;;;13.07;100.00;94741.88;5073274;28;20489;-80
2023/05/23 03:57:24;;;;;;;11.00;8.90;;;;;;;13.17;100.00;94737.34;5073467;28;20444;-81
2023/05/23 03:59:51;;;;;;;16.43;9.40;;;;;;;13.27;100.00;94733.69;5073533;28;20448;-81
2023/05/23 04:02:20;;;;;;;14.13;9.10;;;;;;;13.35;100.00;94732.97;5073664;28;20490;-81
2023/05/23 04:04:47;;;;;;;35.10;9.13;;;;;;;13.41;100.00;94740.25;5073188;28;20454;-81
2023/05/23 04:07:14;;;;;;;20.03;9.80;;;;;;;13.46;100.00;94731.91;5073277;28;20985;-81
2023/05/23 04:09:41;;;;;;;12.60;8.63;;;;;;;13.55;100.00;94744.97;5073250;28;20499;-81
2023/05/23 04:12:09;;;;;;;16.70;9.03;;;;;;;13.60;100.00;94748.03;5073372;28;20450;-81
2023/05/23 04:14:36;;;;;;;37.83;9.37;;;;;;;13.49;100.00;94755.31;5073482;28;20458;-81
2023/05/23 04:17:02;;;;;;;15.13;7.60;;;;;;;13.36;100.00;94753.06;5073073;28;20980;-81
2023/05/23 04:19:31;;;;;;;17.40;8.03;;;;;;;13.38;100.00;94753.75;5073036;28;20508;-81
2023/05/23 04:21:57;;;;;;;12.63;8.37;;;;;;;13.44;100.00;94745.22;5070160;28;20540;-81
2023/05/23 04:24:24;;;;;;;13.20;7.70;;;;;;;13.35;100.00;94746.13;5058555;28;20926;-81
2023/05/23 04:26:51;;;;;;;48.97;9.70;;;;;;;12.70;100.00;94746.22;5072552;28;20945;-81
2023/05/23 04:29:19;;;;;;;48.07;9.97;;;;;;;12.38;100.00;94746.63;5037168;28;20446;-81
2023/05/23 04:31:46;;;;;;;20.33;8.43;;;;;;;12.03;100.00;94743.84;5037583;28;20442;-80
2023/05/23 04:34:13;;;;;;;41.73;9.60;;;;;;;11.98;100.00;94746.09;5072706;28;20445;-81
2023/05/23 04:36:43;;;;;;;98.07;11.67;;;;;;;11.87;100.00;94741.00;5053261;28;20481;-81
2023/05/23 04:39:10;;;;;;;17.67;9.60;;;;;;;12.08;100.00;94747.72;5072730;28;20444;-81
2023/05/23 04:41:37;;;;;;;23.97;8.63;;;;;;;12.24;100.00;94752.38;5071909;28;20551;-81
2023/05/23 04:44:04;;;;;;;22.33;10.43;;;;;;;12.36;100.00;94748.59;5072725;28;20441;-81
2023/05/23 04:46:31;;;;;;;24.57;9.73;;;;;;;12.31;100.00;94750.81;5072578;28;20450;-81
2023/05/23 04:48:59;;;;;;;20.63;8.40;;;;;;;12.33;100.00;94741.00;5072513;28;20498;-81
2023/05/23 04:51:26;;;;;;;12.73;8.13;;;;;;;12.52;100.00;94753.25;5072530;28;20811;-81
2023/05/23 04:53:54;;;;;;;13.30;8.97;;;;;;;12.75;100.00;94758.13;5072254;28;21003;-81
2023/05/23 04:56:21;;;;;;;10.63;7.60;;;;;;;12.82;100.00;94754.75;5072417;28;20464;-81
2023/05/23 04:58:48;;;;;;;10.50;7.13;;;;;;;13.02;100.00;94760.75;5072205;28;20446;-81
2023/05/23 05:01:15;;;;;;;11.33;8.33;;;;;;;13.14;100.00;94766.63;5072455;28;20447;-81
2023/05/23 05:03:41;;;;;;;10.80;7.97;;;;;;;13.41;100.00;94771.06;5072140;28;20476;-82
2023/05/23 05:06:08;;;;;;;7.73;6.83;;;;;;;13.39;100.00;94768.56;5072240;28;20500;-81
2023/05/23 05:08:35;;;;;;;10.43;6.80;;;;;;;13.58;100.00;94773.69;5071708;28;20865;-81
2023/05/23 05:11:03;;;;;;;14.60;7.70;;;;;;;13.68;100.00;94773.63;5071491;28;20474;-81
2023/05/23 05:13:30;;;;;;;11.70;6.70;;;;;;;13.71;100.00;94783.03;5071558;28;20940;-81
2023/05/23 05:15:57;;;;;;;9.53;6.67;;;;;;;13.80;100.00;94776.84;5071746;28;20448;-81
2023/05/23 05:18:25;;;;;;;11.20;7.13;;;;;;;13.83;100.00;94781.81;5071351;28;20497;-81
2023/05/23 05:20:52;;;;;;;12.13;7.23;;;;;;;13.78;100.00;94784.06;5071559;28;20443;-81
2023/05/23 05:23:19;;;;;;;11.43;7.20;;;;;;;13.68;100.00;94784.16;5071974;28;20542;-81
2023/05/23 05:25:46;;;;;;;13.60;8.70;;;;;;;13.76;100.00;94780.75;5071891;28;20446;-81
2023/05/23 05:28:15;;;;;;;14.90;8.00;;;;;;;13.64;100.00;94781.00;5036597;28;20442;-81
2023/05/23 05:30:41;;;;;;;10.90;7.23;;;;;;;13.86;100.00;94786.78;5071807;28;20963;-81
2023/05/23 05:33:09;;;;;;;14.70;9.03;;;;;;;13.73;100.00;94783.72;5071777;28;20487;-81
2023/05/23 05:35:37;;;;;;;11.47;7.67;;;;;;;13.73;100.00;94786.34;5071694;28;20459;-81
2023/05/23 05:38:04;;;;;;;12.33;8.30;;;;;;;13.71;100.00;94788.31;5071437;28;20500;-81
2023/05/23 05:40:31;;;;;;;12.00;8.93;;;;;;;13.82;100.00;94786.25;5071834;28;20491;-81
2023/05/23 05:42:58;;;;;;;15.47;8.70;;;;;;;13.70;100.00;94786.66;5071535;28;20533;-81
2023/05/23 05:45:26;;;;;;;12.13;7.97;;;;;;;13.87;100.00;94785.78;5071798;28;20785;-81
2023/05/23 05:47:53;;;;;;;13.77;9.27;;;;;;;13.99;100.00;94784.59;5071966;28;20447;-81
2023/05/23 05:50:20;;;;;;;13.13;8.37;;;;;;;14.26;100.00;94779.19;5071815;28;20464;-81
2023/05/23 05:52:46;;;;;;;10.10;7.47;;;;;;;14.67;100.00;94781.25;5072404;28;20543;-81
2023/05/23 05:55:13;;;;;;;12.43;10.13;;;;;;;15.04;100.00;94784.41;5075598;28;20451;-81
2023/05/23 05:57:41;;;;;;;15.23;7.80;;;;;;;15.39;100.00;94778.03;5075723;28;20921;-81
2023/05/23 06:00:13;;;;;;;28.80;8.27;;;;;;;15.69;100.00;94786.38;5075727;28;20449;-81
2023/05/23 06:02:42;;;;;;;8.83;7.83;;;;;;;16.20;100.00;94779.94;5057519;28;20485;-81
2023/05/23 06:05:11;;;;;;;17.57;8.50;;;;;;;16.81;97.34;94790.97;5056896;28;20507;-81
2023/05/23 06:07:38;;;;;;;10.07;7.50;;;;;;;17.42;93.79;94786.72;5024222;28;20441;-82
2023/05/23 06:10:05;;;;;;;11.03;8.60;;;;;;;17.98;88.75;94796.16;5075907;28;20444;-81
2023/05/23 06:12:32;;;;;;;12.33;8.20;;;;;;;18.45;87.63;94795.91;5075379;28;20445;-81
2023/05/23 06:14:59;;;;;;;10.10;8.00;;;;;;;18.86;85.43;94791.06;5075637;28;20446;-81
2023/05/23 06:17:26;;;;;;;12.90;8.97;;;;;;;19.02;82.72;94794.53;5075754;28;20439;-81
2023/05/23 06:19:54;;;;;;;12.27;8.50;;;;;;;19.42;84.38;94790.56;5075254;28;20448;-82
2023/05/23 06:22:21;;;;;;;12.67;8.20;;;;;;;19.84;81.20;94794.31;5075066;28;20441;-81
2023/05/23 06:24:47;;;;;;;15.50;9.63;;;;;;;20.20;78.64;94797.75;5075652;28;20455;-82
2023/05/23 06:27:14;;;;;;;12.60;9.20;;;;;;;20.23;78.07;94797.34;5075072;28;20441;-82
2023/05/23 06:29:41;;;;;;;9.67;8.10;;;;;;;20.34;78.47;94796.84;5075275;28;20437;-81
2023/05/23 06:32:08;;;;;;;12.23;9.00;;;;;;;20.69;79.06;94797.78;5075216;28;20449;-82
2023/05/23 06:34:35;;;;;;;15.97;9.07;;;;;;;20.96;77.20;94801.44;5075092;28;20448;-82
2023/05/23 06:37:03;;;;;;;13.97;9.30;;;;;;;21.15;76.27;94791.91;5074865;28;20472;-81
2023/05/23 06:39:29;;;;;;;11.80;9.20;;;;;;;20.70;76.72;94801.25;5075077;28;20434;-82
2023/05/23 06:41:56;;;;;;;11.93;9.30;;;;;;;19.94;78.91;94785.00;5074922;28;20453;-81
2023/05/23 06:44:23;;;;;;;12.50;9.30;;;;;;;19.92;79.37;94788.84;5074788;28;20981;-81
2023/05/23 06:46:50;;;;;;;13.90;9.40;;;;;;;19.54;81.20;94791.75;5074615;28;20452;-82
2023/05/23 06:49:16;;;;;;;13.30;9.63;;;;;;;19.84;79.52;94794.31;5075094;28;20440;-81
2023/05/23 06:51:43;;;;;;;15.50;10.50;;;;;;;19.80;79.14;94794.69;5074694;28;20452;-81
2023/05/23 06:54:11;;;;;;;10.23;8.50;;;;;;;19.91;80.26;94788.03;5074708;28;20445;-81
2023/05/23 06:56:38;;;;;;;13.00;10.50;;;;;;;20.09;80.72;94787.59;5074775;28;20445;-81
2023/05/23 06:59:05;;;;;;;16.00;10.17;;;;;;;20.03;80.97;94791.03;5074287;28;20449;-81
2023/05/23 07:01:31;;;;;;;15.80;8.63;;;;;;;20.52;81.63;94791.06;5074162;28;20437;-81
2023/05/23 07:03:58;;;;;;;12.33;9.17;;;;;;;20.40;78.48;94784.63;5073543;28;20493;-82
2023/05/23 07:06:27;;;;;;;8.33;7.50;;;;;;;20.82;79.40;94783.72;5073339;28;20442;-81
2023/05/23 07:08:53;;;;;;;15.23;7.60;;;;;;;20.86;78.41;94778.81;5074022;28;20885;-82
2023/05/23 07:11:22;;;;;;;12.00;8.27;;;;;;;21.33;77.91;94778.03;5073938;28;20968;-81
2023/05/23 07:13:49;;;;;;;11.30;9.10;;;;;;;20.70;77.59;94777.25;5054964;28;20446;-81
2023/05/23 07:16:16;;;;;;;15.93;9.80;;;;;;;20.36;78.95;94767.34;5074060;28;20446;-81
2023/05/23 07:18:42;;;;;;;14.33;9.10;;;;;;;20.53;80.91;94773.22;5073747;28;20485;-82
2023/05/23 07:21:09;;;;;;;13.93;9.67;;;;;;;20.77;79.51;94764.78;5073813;28;20925;-81
2023/05/23 07:23:36;;;;;;;14.93;10.17;;;;;;;20.85;77.72;94767.31;5074029;28;20987;-82
2023/05/23 07:26:03;;;;;;;14.63;9.83;;;;;;;20.67;78.74;94765.13;5074231;28;20451;-81
2023/05/23 07:28:31;;;;;;;11.97;9.87;;;;;;;20.81;80.00;94765.22;5074493;28;20851;-81
2023/05/23 07:30:58;;;;;;;17.27;9.67;;;;;;;20.78;79.24;94761.09;5074254;28;20448;-82
2023/05/23 07:33:25;;;;;;;13.40;10.80;;;;;;;20.60;78.67;94758.13;5074184;28;20860;-81
2023/05/23 07:35:52;;;;;;;14.37;9.27;;;;;;;20.76;79.44;94757.81;5073579;28;20449;-81
2023/05/23 07:38:18;;;;;;;11.27;8.80;;;;;;;21.13;80.49;94753.09;5073986;28;20504;-82
2023/05/23 07:40:45;;;;;;;12.00;8.80;;;;;;;21.47;78.90;94754.91;5073811;28;20447;-81
2023/05/23 07:43:12;;;;;;;12.40;10.70;;;;;;;21.63;74.91;94754.53;5073952;28;20897;-82
2023/05/23 07:45:40;;;;;;;10.70;9.30;;;;;;;21.88;75.89;94754.81;5054728;28;20439;-82
2023/05/23 07:48:08;;;;;;;12.77;9.33;;;;;;;21.90;74.93;94755.41;5073724;28;20539;-82
2023/05/23 07:50:35;;;;;;;12.50;9.93;;;;;;;21.76;75.11;94756.44;5073499;28;20442;-81
2023/05/23 07:53:02;;;;;;;11.77;9.63;;;;;;;21.79;75.45;94753.34;5073661;28;20978;-82
2023/05/23 07:55:29;;;;;;;11.17;9.30;;;;;;;21.99;74.69;94758.75;5073683;28;20483;-81
2023/05/23 07:57:55;;;;;;;11.20;7.27;;;;;;;22.09;74.41;94752.00;5074116;28;20502;-82
2023/05/23 08:00:22;;;;;;;13.50;8.57;;;;;;;21.89;74.74;94748.44;5073251;28;20448;-82
2023/05/23 08:02:50;;;;;;;11.40;8.07;;;;;;;22.10;73.72;94740.28;5073119;28;20444;-81
2023/05/23 08:05:18;;;;;;;9.43;7.77;;;;;;;22.16;73.27;94749.31;5073475;28;20435;-81
2023/05/23 08:07:47;;;;;;;9.00;8.10;;;;;;;22.20;75.02;94740.69;5073486;28;20469;-81
2023/05/23 08:10:14;;;;;;;11.10;9.03;;;;;;;22.08;74.13;94744.19;5073423;28;20497;-81
2023/05/23 08:12:41;;;;;;;8.10;7.23;;;;;;;21.85;74.57;94737.34;5073194;28;20440;-82
2023/05/23 08:15:09;;;;;;;10.00;7.40;;;;;;;21.95;76.03;94739.59;5073259;28;20923;-82
2023/05/23 08:17:36;;;;;;;10.23;7.87;;;;;;;22.13;76.07;94737.19;5071950;28;21012;-81
2023/05/23 08:20:04;;;;;;;12.80;7.97;;;;;;;21.56;76.16;94735.84;5038218;28;20444;-81
2023/05/23 08:22:31;;;;;;;15.67;8.47;;;;;;;21.80;76.78;94736.31;5072955;28;20448;-82
2023/05/23 08:24:58;;;;;;;9.93;7.87;;;;;;;21.99;77.73;94732.03;5073041;28;20486;-81
2023/05/23 08:27:25;;;;;;;11.77;8.20;;;;;;;22.16;76.27;94728.75;5072846;28;20844;-82
2023/05/23 08:29:51;;;;;;;12.07;8.13;;;;;;;22.37;75.62;94732.25;5072784;28;20521;-81
2023/05/23 08:32:18;;;;;;;9.83;8.80;;;;;;;22.38;76.76;94742.75;5072967;28;20790;-81
2023/05/23 08:34:45;;;;;;;9.30;8.27;;;;;;;22.47;77.35;94724.63;5072577;28;20452;-82
2023/05/23 08:37:13;;;;;;;10.83;7.90;;;;;;;22.61;76.56;94726.28;5072573;28;20465;-82
2023/05/23 08:39:40;;;;;;;14.67;9.70;;;;;;;22.52;76.48;94722.16;5072659;28;20504;-82
2023/05/23 08:42:07;;;;;;;13.20;8.30;;;;;;;22.74;76.99;94734.28;5072697;28;20484;-81
2023/05/23 08:44:34;;;;;;;9.23;8.30;;;;;;;22.85;74.54;94732.88;5072368;28;20879;-81
2023/05/23 08:47:05;;;;;;;9.13;8.07;;;;;;;22.78;74.41;94732.81;5072864;28;20447;-81
2023/05/23 08:49:32;;;;;;;12.73;9.83;;;;;;;22.79;74.24;94729.13;5072658;28;20529;-82
2023/05/23 08:52:02;;;;;;;11.70;9.17;;;;;;;22.83;74.94;94729.53;5072558;28;20455;-81
2023/05/23 08:54:31;;;;;;;13.60;9.10;;;;;;;22.77;74.06;94727.69;5072538;28;21015;-81
2023/05/23 08:56:58;;;;;;;13.43;9.33;;;;;;;22.52;74.53;94722.16;5072627;28;20451;-81
2023/05/23 08:59:27;;;;;;;11.23;7.90;;;;;;;22.62;75.21;94719.91;5072461;28;20500;-81
2023/05/23 09:01:55;;;;;;;11.60;7.90;;;;;;;22.56;74.00;94724.25;5072459;28;20535;-81
2023/05/23 09:04:22;;;;;;;10.53;9.13;;;;;;;22.45;72.79;94726.69;5072338;28;20572;-82
2023/05/23 09:06:49;;;;;;;12.27;7.60;;;;;;;22.46;73.27;94717.66;5036750;28;20852;-82
2023/05/23 09:09:16;;;;;;;9.10;7.90;;;;;;;22.53;77.41;94716.59;5071994;28;20797;-82
2023/05/23 09:11:45;;;;;;;11.43;7.63;;;;;;;22.58;75.33;94707.97;5071937;28;20465;-82
2023/05/23 09:14:13;;;;;;;11.10;7.73;;;;;;;22.80;75.45;94712.03;5072404;28;20531;-82
2023/05/23 09:16:40;;;;;;;7.87;7.10;;;;;;;22.67;73.47;94713.94;5071945;28;20440;-82
2023/05/23 09:19:14;;;;;;;7.73;5.93;;;;;;;22.88;67.17;94720.91;5072045;28;20451;-82
2023/05/23 09:21:43;;;;;;;7.30;5.90;;;;;;;22.91;64.27;94723.16;5072073;28;20447;-82
2023/05/23 09:24:10;;;;;;;6.70;5.63;;;;;;;22.86;59.66;94697.88;5071775;28;20522;-82
2023/05/23 09:26:38;;;;;;;5.67;4.60;;;;;;;22.95;59.67;94690.41;5071817;28;20449;-82
2023/05/23 09:29:07;;;;;;;9.27;4.77;;;;;;;23.19;58.65;94699.59;5036500;28;20509;-82
2023/05/23 09:31:34;;;;;;;5.67;5.10;;;;;;;23.36;58.63;94698.06;5071767;28;20536;-82
2023/05/23 09:34:01;;;;;;;6.03;5.43;;;;;;;23.31;55.37;94689.84;5071791;28;20530;-81
2023/05/23 09:36:31;;;;;;;7.13;4.83;;;;;;;23.18;55.93;94700.63;5071821;28;20545;-82
2023/05/23 09:39:03;;;;;;;5.30;4.80;;;;;;;23.05;56.30;94689.97;5071687;28;20954;-81
2023/05/23 09:41:32;;;;;;;5.53;4.43;;;;;;;23.17;56.15;94688.28;5071860;28;20463;-81
2023/05/23 09:44:00;;;;;;;8.70;5.20;;;;;;;23.26;55.51;94678.97;5071960;28;20908;-82
2023/05/23 09:46:29;;;;;;;4.97;4.57;;;;;;;22.79;55.27;94675.59;5071922;28;20483;-81
2023/05/23 09:48:58;;;;;;;7.93;4.87;;;;;;;22.44;53.12;94683.09;5071886;28;20528;-82
2023/05/23 09:51:27;;;;;;;8.40;5.27;;;;;;;22.51;55.86;94675.88;5036996;28;20576;-81
2023/05/23 09:53:54;;;;;;;5.57;5.07;;;;;;;22.58;56.16;94672.38;5071979;28;20446;-81
2023/05/23 09:56:22;;;;;;;7.23;4.73;;;;;;;22.56;53.78;94672.59;5071814;28;20445;-81
2023/05/23 09:58:51;;;;;;;5.90;4.77;;;;;;;22.58;56.60;94675.06;5071489;28;20438;-81
2023/05/23 10:01:18;;;;;;;5.83;4.93;;;;;;;21.88;54.71;94672.81;5071656;28;20446;-82
2023/05/23 10:03:49;;;;;;;5.10;4.60;;;;;;;22.17;57.11;94666.25;5071230;28;20549;-82
2023/05/23 10:06:22;;;;;;;5.60;5.13;;;;;;;22.25;59.44;94663.38;5071782;28;20774;-82
2023/05/23 10:08:56;;;;;;;4.40;4.10;;;;;;;22.41;59.76;94661.31;5071701;28;20438;-82
2023/05/23 10:11:52;;;;;;;7.30;4.17;;;;;;;22.21;56.19;94661.31;5071482;28;20532;-81
2023/05/23 10:14:19;;;;;;;6.90;5.13;;;;;;;22.47;57.03;94655.13;5071353;28;20864;-82
2023/05/23 10:16:59;;;;;;;7.27;4.33;;;;;;;22.71;56.69;94656.28;5052526;28;20497;-82
2023/05/23 10:19:31;;;;;;;5.43;4.97;;;;;;;22.86;55.68;94657.72;5072015;28;20533;-81
2023/05/23 10:22:01;;;;;;;5.00;4.40;;;;;;;22.81;55.77;94654.84;5071597;28;20457;-82
2023/05/23 10:24:28;;;;;;;4.70;4.23;;;;;;;22.47;52.12;94652.44;5071631;28;20828;-82
2023/05/23 10:26:56;;;;;;;7.53;4.60;;;;;;;22.55;52.96;94649.53;5071541;28;20445;-82
2023/05/23 10:29:23;;;;;;;6.77;4.80;;;;;;;22.56;52.95;94637.84;5071754;28;20798;-82
2023/05/23 10:31:51;;;;;;;5.60;5.10;;;;;;;22.69;56.19;94643.13;5071649;28;20449;-82
2023/05/23 10:34:25;;;;;;;6.37;4.97;;;;;;;22.69;57.58;94640.47;5071180;28;20509;-82
2023/05/23 10:37:00;;;;;;;6.83;4.83;;;;;;;22.85;54.01;94636.53;5070981;28;21062;-81
2023/05/23 10:39:37;;;;;;;5.83;4.60;;;;;;;22.78;49.83;94639.19;5071142;28;20457;-82
2023/05/23 10:42:11;;;;;;;5.50;5.00;;;;;;;22.72;48.25;94642.72;5074990;28;20585;-82
2023/05/23 10:44:38;;;;;;;5.70;4.00;;;;;;;22.70;50.87;94631.41;5075005;28;20485;-82
2023/05/23 10:47:06;;;;;;;6.93;4.33;;;;;;;22.82;49.17;94620.88;5074965;28;20515;-82
2023/05/23 10:49:40;;;;;;;7.80;4.53;;;;;;;22.91;48.73;94626.84;5055883;28;20438;-82
2023/05/23 10:52:10;;;;;;;8.03;4.70;;;;;;;22.99;50.41;94622.06;5074897;28;20897;-82
2023/05/23 10:54:41;;;;;;;8.13;4.40;;;;;;;22.88;50.10;94625.41;5074981;28;20438;-81
2023/05/23 10:57:10;;;;;;;4.80;4.30;;;;;;;22.91;48.40;94624.16;5075095;28;20443;-81
2023/05/23 10:59:38;;;;;;;4.60;4.20;;;;;;;22.52;47.38;94618.69;5055626;28;20964;-82
2023/05/23 11:02:12;;;;;;;4.20;3.90;;;;;;;22.55;48.67;94612.09;5074613;28;20504;-82
2023/05/23 11:04:39;;;;;;;3.73;3.50;;;;;;;22.50;47.22;94611.91;5055608;28;20483;-82
2023/05/23 11:07:06;;;;;;;7.40;4.07;;;;;;;22.57;47.06;94618.06;5074545;28;20453;-81
2023/05/23 11:09:34;;;;;;;4.83;4.33;;;;;;;22.66;46.50;94616.81;5074630;28;20450;-82
2023/05/23 11:12:03;;;;;;;9.03;4.90;;;;;;;22.75;48.41;94604.00;5074272;28;20848;-82
2023/05/23 11:14:51;;;;;;;4.83;4.23;;;;;;;22.88;45.49;94606.69;5074285;28;20458;-82
2023/05/23 11:17:29;;;;;;;4.10;3.80;;;;;;;22.96;45.91;94595.72;5074604;28;20524;-82
2023/05/23 11:19:58;;;;;;;4.20;3.90;;;;;;;23.13;47.66;94599.56;5074229;28;20444;-82
2023/05/23 11:22:28;;;;;;;4.70;3.97;;;;;;;22.98;45.07;94598.19;5074376;28;20840;-82
2023/05/23 11:24:57;;;;;;;4.50;4.10;;;;;;;23.00;45.79;94604.13;5073894;28;20488;-82
2023/05/23 11:27:28;;;;;;;6.33;4.43;;;;;;;23.13;45.12;94596.88;5074432;28;20446;-81
2023/05/23 11:30:00;;;;;;;7.43;4.17;;;;;;;23.23;43.82;94591.03;5073872;28;20504;-81